Time;durP1;ratioP1;P1;durP2;ratioP2;P2;SDS_P1;SDS_P2;PMS_P1;PMS_P2;Temp;Humidity;BMP_temperature;BMP_pressure;BME280_temperature;BME280_humidity;BME280_pressure;Samples;Min_cycle;Max_cycle;Signal;HPM_P1;HPM_P2
2023/11/24 00:01:47;;;;;;;11.20;2.22;;;;;;;10.18;100.00;101647.78;4870308;29;20079;-96
2023/11/24 00:04:26;;;;;;;14.25;2.03;;;;;;;10.16;100.00;101645.25;4869625;29;20068;-96
2023/11/24 00:07:08;;;;;;;17.83;2.40;;;;;;;10.13;100.00;101652.56;4873565;29;20036;-96
2023/11/24 00:09:52;;;;;;;14.20;2.13;;;;;;;10.14;100.00;101662.16;4865272;29;20068;-96
2023/11/24 00:12:39;;;;;;;15.40;2.42;;;;;;;10.15;100.00;101661.22;4874604;29;20475;-96
2023/11/24 00:15:26;;;;;;;;;;;;;;;;;;;;;
2023/11/24 00:18:36;;;;;;;10.00;1.38;;;;;;;10.17;100.00;101651.38;4896131;29;20041;-96
2023/11/24 00:21:07;;;;;;;8.30;1.65;;;;;;;10.24;100.00;101652.59;4869533;29;20043;-96
2023/11/24 00:23:40;;;;;;;14.73;2.22;;;;;;;10.21;100.00;101644.91;4881188;29;20124;-96
2023/11/24 00:26:20;;;;;;;13.57;2.22;;;;;;;10.18;100.00;101647.78;4890682;29;20060;-96
2023/11/24 00:29:05;;;;;;;12.00;2.05;;;;;;;10.13;100.00;101644.66;4883628;29;20044;-96
2023/11/24 00:31:48;;;;;;;14.40;1.90;;;;;;;10.12;100.00;101648.22;4866332;29;20091;-96
2023/11/24 00:34:35;;;;;;;11.77;1.75;;;;;;;10.03;100.00;101660.31;4868156;29;20067;-96
2023/11/24 00:37:08;;;;;;;17.55;1.95;;;;;;;9.92;100.00;101656.63;4869681;29;20059;-96
2023/11/24 00:39:58;;;;;;;16.23;2.17;;;;;;;9.93;100.00;101660.13;4898913;29;20036;-96
2023/11/24 00:43:05;;;;;;;;;;;;;;;;;;;;;
2023/11/24 00:47:07;;;;;;;10.30;1.50;;;;;;;9.74;100.00;101674.63;4877016;29;20131;-96
2023/11/24 00:50:20;;;;;;;12.27;2.13;;;;;;;9.63;100.00;101683.31;4882020;29;20065;-96
2023/11/24 00:53:19;;;;;;;16.13;2.17;;;;;;;9.62;100.00;101686.06;4888667;29;20036;-96
2023/11/24 00:55:56;;;;;;;17.70;2.85;;;;;;;9.70;100.00;101688.16;4871639;29;20152;-95
2023/11/24 00:58:50;;;;;;;11.23;2.28;;;;;;;9.60;100.00;101682.69;4869891;29;20040;-96
2023/11/24 01:01:28;;;;;;;13.77;1.77;;;;;;;9.55;100.00;101680.38;4885789;29;20059;-96
2023/11/24 01:04:11;;;;;;;12.13;2.65;;;;;;;9.64;100.00;101679.72;4879629;29;20083;-96
2023/11/24 01:06:54;;;;;;;17.05;1.98;;;;;;;9.61;100.00;101682.56;4883005;29;20134;-96
2023/11/24 01:10:10;;;;;;;16.17;2.47;;;;;;;9.65;100.00;101670.84;4897136;29;20048;-96
2023/11/24 01:16:20;;;;;;;20.48;4.03;;;;;;;9.59;100.00;101652.78;4886244;29;20035;-96
2023/11/24 01:19:24;;;;;;;18.20;3.92;;;;;;;9.68;100.00;101659.22;4893349;29;20088;-96
2023/11/24 01:25:30;;;;;;;11.18;1.90;;;;;;;9.67;100.00;101668.94;4880759;29;20045;-95
2023/11/24 01:28:41;;;;;;;15.40;2.00;;;;;;;9.57;100.00;101670.56;4876847;29;20044;-96
2023/11/24 01:31:31;;;;;;;;;;;;;;;;;;;;;
2023/11/24 01:35:29;;;;;;;17.55;1.90;;;;;;;9.64;100.00;101670.94;4899780;29;20113;-96
2023/11/24 01:39:14;;;;;;;;;;;;;;;;;;;;;
2023/11/24 01:46:25;;;;;;;14.40;2.35;;;;;;;9.78;100.00;101685.81;4873614;29;20088;-96
2023/11/24 01:49:37;;;;;;;14.63;1.75;;;;;;;9.81;100.00;101680.31;4878204;29;20041;-96
2023/11/24 01:56:31;;;;;;;16.13;2.42;;;;;;;9.78;100.00;101693.72;4855859;29;20511;-96
2023/11/24 02:03:48;;;;;;;;;;;;;;;;;;;;;
2023/11/24 02:06:57;;;;;;;14.30;2.75;;;;;;;9.55;100.00;101702.34;4785679;29;20129;-96
2023/11/24 02:14:04;;;;;;;16.95;2.60;;;;;;;9.47;100.00;101690.59;4868871;29;20044;-96
2023/11/24 02:16:53;;;;;;;11.40;2.72;;;;;;;9.64;100.00;101699.97;4893000;29;20096;-96
2023/11/24 02:20:34;;;;;;;20.48;4.07;;;;;;;9.72;100.00;101697.66;4882093;29;20055;-96
2023/11/24 02:23:39;;;;;;;14.23;1.63;;;;;;;9.64;100.00;101681.50;4885975;29;20840;-96
2023/11/24 02:29:52;;;;;;;23.52;3.90;;;;;;;9.64;100.00;101682.34;4915049;29;20039;-96
2023/11/24 02:32:36;;;;;;;20.55;3.58;;;;;;;9.72;100.00;101684.47;4903265;29;20044;-96
2023/11/24 02:36:16;;;;;;;;;;;;;;;;;;;;;
2023/11/24 02:38:37;;;;;;;20.05;2.67;;;;;;;9.80;100.00;101690.03;4880485;29;20048;-96
2023/11/24 02:41:30;;;;;;;14.68;2.67;;;;;;;9.89;100.00;101696.47;4873675;29;20040;-96
2023/11/24 02:44:14;;;;;;;16.45;2.15;;;;;;;9.97;100.00;101700.38;4901685;29;20036;-96
2023/11/24 02:46:54;;;;;;;15.75;2.63;;;;;;;9.94;100.00;101696.13;4863267;29;20068;-96
2023/11/24 02:49:35;;;;;;;21.77;2.85;;;;;;;9.99;100.00;101694.00;4885887;29;20049;-96
2023/11/24 02:52:20;;;;;;;19.15;3.20;;;;;;;10.00;100.00;101690.41;4897326;29;20055;-96
2023/11/24 02:55:12;;;;;;;17.77;2.05;;;;;;;9.98;100.00;101684.41;4874831;29;20119;-96
2023/11/24 02:57:43;;;;;;;18.80;2.20;;;;;;;9.96;100.00;101691.59;4897378;29;20067;-96
2023/11/24 03:00:12;;;;;;;17.08;2.65;;;;;;;9.99;100.00;101683.44;4886488;29;20494;-96
2023/11/24 03:02:40;;;;;;;12.85;2.35;;;;;;;10.01;100.00;101678.91;4901149;29;20036;-96
2023/11/24 03:05:06;;;;;;;20.20;3.13;;;;;;;10.03;100.00;101674.34;4871068;29;20115;-96
2023/11/24 03:07:34;;;;;;;17.05;4.22;;;;;;;10.04;100.00;101678.69;4885613;29;20151;-96
2023/11/24 03:10:00;;;;;;;22.83;3.45;;;;;;;10.03;100.00;101679.63;4870327;29;20040;-96
2023/11/24 03:12:26;;;;;;;20.65;3.53;;;;;;;10.04;100.00;101680.47;4884043;29;20745;-96
2023/11/24 03:14:53;;;;;;;18.73;3.72;;;;;;;10.03;100.00;101676.97;4871745;29;20043;-96
2023/11/24 03:17:20;;;;;;;21.88;4.22;;;;;;;10.03;100.00;101673.53;4857183;29;20483;-96
2023/11/24 03:19:49;;;;;;;21.35;3.25;;;;;;;10.10;100.00;101681.81;4885920;29;20036;-96
2023/11/24 03:22:15;;;;;;;28.33;3.45;;;;;;;9.96;100.00;101664.31;4916546;29;20036;-96
2023/11/24 03:24:41;;;;;;;24.85;3.80;;;;;;;9.95;100.00;101678.50;4873622;29;20035;-96
2023/11/24 03:27:07;;;;;;;18.45;3.08;;;;;;;9.92;100.00;101677.75;4881323;29;20039;-96
2023/11/24 03:29:35;;;;;;;16.52;3.42;;;;;;;9.92;100.00;101674.28;4868260;29;20036;-96
2023/11/24 03:32:02;;;;;;;21.83;3.50;;;;;;;9.93;100.00;101676.81;4901302;29;20047;-96
2023/11/24 03:34:28;;;;;;;27.58;3.95;;;;;;;9.98;100.00;101683.56;4860536;29;20037;-96
2023/11/24 03:36:53;;;;;;;26.42;3.90;;;;;;;9.99;100.00;101686.09;4899138;29;20513;-96
2023/11/24 03:39:21;;;;;;;21.80;3.30;;;;;;;9.96;100.00;101670.47;4897322;29;20042;-96
2023/11/24 03:41:48;;;;;;;24.05;3.33;;;;;;;9.94;100.00;101677.66;4882300;29;20254;-96
2023/11/24 03:44:14;;;;;;;17.55;3.03;;;;;;;9.90;100.00;101668.25;4883070;29;20072;-96
2023/11/24 03:46:40;;;;;;;26.42;3.08;;;;;;;9.85;100.00;101671.25;4879755;29;20094;-96
2023/11/24 03:49:08;;;;;;;18.00;2.83;;;;;;;9.75;100.00;101668.41;4869215;29;20035;-96
2023/11/24 03:51:35;;;;;;;26.30;3.35;;;;;;;9.79;100.00;101669.03;4898445;29;20126;-96
2023/11/24 03:54:00;;;;;;;17.40;2.72;;;;;;;9.74;100.00;101660.59;4868690;29;20040;-96
2023/11/24 03:56:26;;;;;;;21.10;3.55;;;;;;;9.75;100.00;101667.53;4896308;29;20138;-96
2023/11/24 03:58:52;;;;;;;26.55;3.13;;;;;;;9.68;100.00;101664.50;4879727;29;20103;-89
2023/11/24 04:01:18;;;;;;;20.70;3.00;;;;;;;9.68;100.00;101665.34;4898932;29;20491;-96
2023/11/24 04:03:46;;;;;;;20.40;2.55;;;;;;;9.74;100.00;101674.63;4890342;29;20041;-96
2023/11/24 04:06:15;;;;;;;21.10;3.33;;;;;;;9.64;100.00;101666.50;4864759;29;20467;-96
2023/11/24 04:08:42;;;;;;;27.17;5.47;;;;;;;9.61;100.00;101671.16;4887726;29;20036;-96
2023/11/24 04:11:09;;;;;;;23.30;3.45;;;;;;;9.59;100.00;101671.25;4882379;29;20080;-96
2023/11/24 04:13:35;;;;;;;27.55;4.13;;;;;;;9.49;100.00;101654.41;4870312;29;20123;-96
2023/11/24 04:16:01;;;;;;;25.08;3.60;;;;;;;9.54;100.00;101662.81;4896359;29;20440;-96
2023/11/24 04:18:27;;;;;;;26.00;3.25;;;;;;;9.53;100.00;101655.84;4868441;29;20036;-96
2023/11/24 04:20:53;;;;;;;36.72;4.38;;;;;;;9.55;100.00;101669.81;4882432;29;20036;-96
2023/11/24 04:23:19;;;;;;;36.67;5.22;;;;;;;9.53;100.00;101664.63;4904019;29;20095;-96
2023/11/24 04:25:45;;;;;;;23.77;3.10;;;;;;;9.46;100.00;101662.53;4884528;29;20044;-96
2023/11/24 04:28:11;;;;;;;26.02;4.22;;;;;;;9.43;100.00;101658.28;4871308;29;20036;-96
2023/11/24 04:30:37;;;;;;;31.33;3.60;;;;;;;9.36;100.00;101654.41;4875787;29;20040;-96
2023/11/24 04:33:03;;;;;;;30.83;4.10;;;;;;;9.33;100.00;101646.69;4902186;29;20143;-96
2023/11/24 04:35:29;;;;;;;26.33;3.40;;;;;;;9.30;100.00;101650.41;4925833;29;20043;-96
2023/11/24 04:37:55;;;;;;;30.10;4.22;;;;;;;9.22;100.00;101645.63;4909327;29;20111;-96
2023/11/24 04:40:21;;;;;;;33.20;5.38;;;;;;;9.24;100.00;101641.09;4890265;29;20039;-96
2023/11/24 04:42:47;;;;;;;20.17;3.28;;;;;;;9.20;100.00;101646.69;4877688;29;20392;-90
2023/11/24 04:45:13;;;;;;;32.85;4.43;;;;;;;9.17;100.00;101631.94;4892312;29;20044;-96
2023/11/24 04:47:39;;;;;;;25.92;3.65;;;;;;;9.17;100.00;101638.03;4900630;29;20503;-96
2023/11/24 04:50:06;;;;;;;26.75;3.83;;;;;;;9.18;100.00;101633.63;4899614;29;20438;-96
2023/11/24 04:52:34;;;;;;;32.60;4.57;;;;;;;9.16;100.00;101635.50;4902124;29;20514;-96
2023/11/24 04:55:00;;;;;;;42.70;4.93;;;;;;;9.14;100.00;101634.78;4867475;29;20072;-96
2023/11/24 05:00:19;;;;;;;28.08;3.95;;;;;;;9.04;100.00;101639.84;4872662;29;20568;-96
2023/11/24 05:02:46;;;;;;;31.25;4.25;;;;;;;9.07;100.00;101644.91;4837455;29;20089;-96
2023/11/24 05:05:12;;;;;;;28.45;3.90;;;;;;;9.06;100.00;101651.97;4838350;29;20048;-96
2023/11/24 05:07:38;;;;;;;32.47;3.88;;;;;;;9.05;100.00;101650.28;4847465;29;20387;-96
2023/11/24 05:10:07;;;;;;;37.50;5.72;;;;;;;8.98;100.00;101640.25;4874921;29;20080;-96
2023/11/24 05:12:37;;;;;;;33.60;4.07;;;;;;;8.94;100.00;101642.25;4849336;29;20048;-96
2023/11/24 05:15:08;;;;;;;26.90;4.45;;;;;;;8.90;100.00;101641.59;4840522;29;20086;-96
2023/11/24 05:20:40;;;;;;;36.25;3.80;;;;;;;8.81;100.00;101650.13;5221783;23;20057;-96
2023/11/24 05:23:06;;;;;;;28.90;4.13;;;;;;;8.81;100.00;101658.03;4872536;29;20038;-96
2023/11/24 05:25:32;;;;;;;33.17;4.60;;;;;;;8.76;100.00;101645.16;4864078;29;20496;-96
2023/11/24 05:28:01;;;;;;;39.50;5.35;;;;;;;8.82;100.00;101646.56;4864260;29;20041;-96
2023/11/24 05:30:32;;;;;;;29.60;4.82;;;;;;;8.78;100.00;101645.91;4867134;29;20550;-96
2023/11/24 05:32:58;;;;;;;29.95;4.68;;;;;;;8.73;100.00;101642.75;4844533;29;20037;-96
2023/11/24 05:35:24;;;;;;;40.17;5.68;;;;;;;8.71;100.00;101639.38;4850726;29;20116;-96
2023/11/24 05:40:49;;;;;;;26.70;4.75;;;;;;;8.71;100.00;101651.72;5018021;23;20104;-96
2023/11/24 05:43:16;;;;;;;27.83;4.72;;;;;;;8.76;100.00;101646.97;4851580;29;20071;-96
2023/11/24 05:45:42;;;;;;;28.90;4.03;;;;;;;8.71;100.00;101641.16;4867035;29;20043;-96
2023/11/24 05:48:08;;;;;;;30.15;4.10;;;;;;;8.71;100.00;101635.91;4849767;29;20029;-96
2023/11/24 05:50:33;;;;;;;30.30;5.13;;;;;;;8.74;100.00;101644.44;4850000;29;20044;-96
2023/11/24 05:52:59;;;;;;;29.58;3.95;;;;;;;8.70;100.00;101637.69;4883704;29;20037;-96
2023/11/24 05:55:25;;;;;;;29.65;3.88;;;;;;;8.72;100.00;101640.22;4852751;29;20036;-96
2023/11/24 05:57:50;;;;;;;22.40;3.33;;;;;;;8.68;100.00;101636.94;4887972;29;20036;-96
2023/11/24 06:00:18;;;;;;;44.25;4.32;;;;;;;8.61;100.00;101633.03;4872859;29;20468;-96
2023/11/24 06:02:44;;;;;;;37.05;4.70;;;;;;;8.60;100.00;101634.81;4847980;29;20034;-96
2023/11/24 06:05:12;;;;;;;31.20;4.22;;;;;;;8.56;100.00;101633.31;4864940;29;20047;-96
2023/11/24 06:07:40;;;;;;;31.90;4.70;;;;;;;8.53;100.00;101621.19;4864399;29;20074;-96
2023/11/24 06:10:08;;;;;;;35.72;4.80;;;;;;;8.59;100.00;101634.91;4856217;29;20040;-96
2023/11/24 06:12:33;;;;;;;27.20;3.85;;;;;;;8.53;100.00;101637.00;4862800;29;20037;-96
2023/11/24 06:14:59;;;;;;;32.10;4.53;;;;;;;8.53;100.00;101631.72;4856746;29;20047;-96
2023/11/24 06:17:25;;;;;;;33.75;4.70;;;;;;;8.52;100.00;101631.81;4868198;29;20530;-96
2023/11/24 06:19:51;;;;;;;30.67;4.18;;;;;;;8.51;100.00;101625.69;4866347;29;20040;-96
2023/11/24 06:22:16;;;;;;;25.48;3.80;;;;;;;8.51;100.00;101630.09;4867675;29;20068;-96
2023/11/24 06:24:42;;;;;;;25.10;5.95;;;;;;;8.50;100.00;101626.66;4850830;29;20097;-96
2023/11/24 06:27:08;;;;;;;33.45;5.35;;;;;;;8.48;100.00;101620.63;4851966;29;20036;-96
2023/11/24 06:29:34;;;;;;;35.25;4.90;;;;;;;8.47;100.00;101618.94;4851201;29;20029;-96
2023/11/24 06:32:00;;;;;;;27.95;4.65;;;;;;;8.48;100.00;101617.13;4863809;29;20061;-96
2023/11/24 06:34:26;;;;;;;29.30;4.38;;;;;;;8.46;100.00;101611.97;4863197;29;20067;-96
2023/11/24 06:36:52;;;;;;;25.13;3.85;;;;;;;8.49;100.00;101613.56;4855601;29;20475;-96
2023/11/24 06:39:19;;;;;;;25.83;4.25;;;;;;;8.49;100.00;101609.13;4851342;29;20060;-96
2023/11/24 06:41:46;;;;;;;28.10;4.28;;;;;;;8.56;100.00;101612.25;4866457;29;20103;-96
2023/11/24 06:44:12;;;;;;;20.00;3.63;;;;;;;8.52;100.00;101603.66;4895760;29;20039;-96
2023/11/24 06:46:38;;;;;;;34.38;4.55;;;;;;;8.53;100.00;101607.16;4864620;29;20044;-96
2023/11/24 06:49:06;;;;;;;30.25;4.13;;;;;;;8.52;100.00;101613.38;4865638;29;20048;-96
2023/11/24 06:51:32;;;;;;;38.00;4.50;;;;;;;8.55;100.00;101616.66;4885131;29;20040;-96
2023/11/24 06:53:58;;;;;;;24.00;3.50;;;;;;;8.54;100.00;101614.09;4851304;29;20033;-96
2023/11/24 06:56:29;;;;;;;26.90;3.78;;;;;;;8.41;100.00;101611.41;4845033;29;20081;-96
2023/11/24 06:58:58;;;;;;;22.17;3.25;;;;;;;8.36;100.00;101618.81;4873818;29;20064;-96
2023/11/24 07:01:31;;;;;;;25.63;3.42;;;;;;;8.38;100.00;101619.53;4862173;29;20049;-96
2023/11/24 07:04:02;;;;;;;25.67;3.50;;;;;;;8.30;100.00;101610.34;4851457;29;20040;-96
2023/11/24 07:06:28;;;;;;;34.28;5.10;;;;;;;8.36;100.00;101609.09;4879879;29;20037;-96
2023/11/24 07:08:54;;;;;;;29.08;4.45;;;;;;;8.34;100.00;101600.47;4875188;29;20031;-95
2023/11/24 07:11:20;;;;;;;33.47;4.78;;;;;;;8.40;100.00;101615.00;4866339;29;20108;-96
2023/11/24 07:13:46;;;;;;;29.33;5.53;;;;;;;8.31;100.00;101606.75;4867079;29;20036;-96
2023/11/24 07:16:16;;;;;;;33.72;4.25;;;;;;;8.26;100.00;101606.25;4869874;29;20037;-96
2023/11/24 07:18:42;;;;;;;30.73;4.72;;;;;;;8.22;100.00;101606.53;4851376;29;20068;-96
2023/11/24 07:21:08;;;;;;;25.58;3.42;;;;;;;8.15;100.00;101612.22;4851123;29;20079;-96
2023/11/24 07:23:37;;;;;;;39.05;5.15;;;;;;;8.08;100.00;101618.78;4886260;29;21226;-96
2023/11/24 07:26:07;;;;;;;27.45;4.50;;;;;;;8.12;100.00;101627.34;4870092;29;20123;-96
2023/11/24 07:28:38;;;;;;;31.48;4.20;;;;;;;8.04;100.00;101617.31;4865824;29;20487;-96
2023/11/24 07:31:04;;;;;;;30.52;5.18;;;;;;;8.06;100.00;101623.31;4859159;29;20064;-96
2023/11/24 07:33:32;;;;;;;32.53;4.07;;;;;;;8.09;100.00;101624.91;4872795;29;20067;-96
2023/11/24 07:35:58;;;;;;;35.33;6.28;;;;;;;8.10;100.00;101626.59;4872782;29;20119;-96
2023/11/24 07:38:25;;;;;;;47.97;7.47;;;;;;;8.06;100.00;101621.53;4869238;29;20036;-96
2023/11/24 07:44:38;;;;;;;27.85;5.10;;;;;;;8.10;100.00;101624.81;4830309;29;20042;-96
2023/11/24 07:47:05;;;;;;;29.45;3.90;;;;;;;8.10;100.00;101619.56;4860665;29;20051;-96
2023/11/24 07:49:31;;;;;;;28.20;4.82;;;;;;;8.17;100.00;101634.00;4850324;29;20056;-96
2023/11/24 07:51:57;;;;;;;23.88;3.65;;;;;;;8.20;100.00;101627.72;4844117;29;20480;-95
2023/11/24 07:54:23;;;;;;;25.92;3.83;;;;;;;8.18;100.00;101609.38;4881889;29;20127;-96
2023/11/24 07:56:49;;;;;;;26.17;3.03;;;;;;;8.19;100.00;101612.84;4864658;29;20044;-96
2023/11/24 07:59:15;;;;;;;25.08;3.97;;;;;;;8.25;100.00;101622.16;4853037;29;20036;-96
2023/11/24 08:01:41;;;;;;;26.98;4.53;;;;;;;8.24;100.00;101620.44;4849504;29;20036;-96
2023/11/24 08:04:08;;;;;;;35.25;4.47;;;;;;;8.29;100.00;101618.34;4854092;29;20088;-96
2023/11/24 08:06:35;;;;;;;22.83;3.83;;;;;;;8.23;100.00;101610.84;4858197;29;20036;-96
2023/11/24 08:09:03;;;;;;;42.72;5.15;;;;;;;8.19;100.00;101607.56;4891976;29;20032;-96
2023/11/24 08:11:31;;;;;;;28.35;4.65;;;;;;;8.16;100.00;101606.00;4855440;29;20045;-97
2023/11/24 08:18:13;;;;;;;24.70;5.13;;;;;;;8.07;100.00;101625.84;4901703;29;20515;-96
2023/11/24 08:20:40;;;;;;;29.52;4.40;;;;;;;8.04;100.00;101612.06;4880457;29;20033;-96
2023/11/24 08:23:06;;;;;;;27.05;3.83;;;;;;;8.01;100.00;101617.50;4879648;29;20060;-96
2023/11/24 08:25:34;;;;;;;27.50;4.18;;;;;;;7.99;100.00;101614.13;4874321;29;20036;-96
2023/11/24 08:28:00;;;;;;;24.38;4.05;;;;;;;7.97;100.00;101608.97;4875610;29;20036;-96
2023/11/24 08:39:39;;;;;;;27.80;4.32;;;;;;;7.87;100.00;101642.91;5506860;23;20059;-96
2023/11/24 08:42:25;;;;;;;24.63;3.45;;;;;;;7.88;100.00;101649.03;4877578;23;20053;-96
2023/11/24 08:45:23;;;;;;;25.65;3.55;;;;;;;7.98;100.00;101644.03;4859960;29;20048;-96
2023/11/24 08:48:23;;;;;;;27.80;3.88;;;;;;;7.98;100.00;101644.88;4847883;29;20044;-96
2023/11/24 08:51:36;;;;;;;24.50;4.07;;;;;;;7.98;100.00;101630.88;4863499;29;20033;-96
2023/11/24 08:54:38;;;;;;;;;;;;;;;;;;;;;
2023/11/24 08:57:27;;;;;;;26.35;3.35;;;;;;;7.98;100.00;101625.63;4839622;29;20044;-96
2023/11/24 09:00:35;;;;;;;25.23;4.43;;;;;;;8.03;100.00;101631.41;4877168;29;20045;-96
2023/11/24 09:03:17;;;;;;;27.15;3.55;;;;;;;8.05;100.00;101632.16;4862535;29;20495;-96
2023/11/24 09:06:06;;;;;;;34.90;4.75;;;;;;;8.04;100.00;101625.22;4878187;29;20036;-96
2023/11/24 09:08:45;;;;;;;29.38;4.45;;;;;;;8.08;100.00;101618.78;4881630;29;20037;-96
2023/11/24 09:11:32;;;;;;;37.10;4.50;;;;;;;8.20;100.00;101630.34;4847809;29;20044;-96
2023/11/24 09:14:16;;;;;;;28.25;4.32;;;;;;;8.16;100.00;101619.16;4859421;29;20132;-96
2023/11/24 09:16:56;;;;;;;30.95;4.80;;;;;;;8.15;100.00;101625.38;4836872;29;20041;-96
2023/11/24 09:19:34;;;;;;;46.30;8.93;;;;;;;8.11;100.00;101631.78;4859441;29;20120;-96
2023/11/24 09:22:05;;;;;;;29.65;7.45;;;;;;;8.06;100.00;101631.22;4833268;29;20024;-96
2023/11/24 09:24:35;;;;;;;21.80;4.55;;;;;;;8.06;100.00;101637.34;4846324;29;20434;-95
2023/11/24 09:27:04;;;;;;;26.73;5.18;;;;;;;8.12;100.00;101636.09;4833345;29;20036;-95
2023/11/24 09:29:30;;;;;;;35.38;4.38;;;;;;;8.15;100.00;101635.06;4873455;29;20036;-95
2023/11/24 09:32:08;;;;;;;33.42;4.53;;;;;;;8.24;100.00;101634.47;4842419;29;20030;-95
2023/11/24 09:34:40;;;;;;;27.45;3.83;;;;;;;8.23;100.00;101645.94;4846075;29;21149;-95
2023/11/24 09:37:09;;;;;;;37.67;4.63;;;;;;;8.26;100.00;101642.25;4838237;29;20033;-95
2023/11/24 09:39:40;;;;;;;35.42;4.47;;;;;;;8.28;100.00;101632.47;4847497;29;20045;-94
2023/11/24 09:42:17;;;;;;;29.67;3.88;;;;;;;8.35;100.00;101641.66;4864044;29;20029;-95
2023/11/24 09:44:45;;;;;;;36.08;5.20;;;;;;;8.37;100.00;101633.66;4837043;29;20112;-95
2023/11/24 09:47:14;;;;;;;38.20;4.45;;;;;;;8.41;100.00;101620.19;4838721;29;20045;-96
2023/11/24 09:49:41;;;;;;;38.40;4.25;;;;;;;8.46;100.00;101633.06;4858336;29;20041;-95
2023/11/24 09:52:11;;;;;;;38.53;5.20;;;;;;;8.48;100.00;101628.53;4849148;29;20065;-96
2023/11/24 09:54:47;;;;;;;34.25;4.95;;;;;;;8.53;100.00;101629.09;4856081;29;20068;-95
2023/11/24 09:57:35;;;;;;;35.33;4.82;;;;;;;8.59;100.00;101637.53;4831117;29;20057;-94
2023/11/24 10:00:04;;;;;;;28.10;4.10;;;;;;;8.61;100.00;101633.03;4829907;29;20102;-95
2023/11/24 10:02:44;;;;;;;28.40;4.40;;;;;;;8.68;100.00;101637.78;4853993;29;20041;-95
2023/11/24 10:05:25;;;;;;;33.92;5.75;;;;;;;8.76;100.00;101639.06;4837057;29;20349;-95
2023/11/24 10:07:57;;;;;;;31.95;4.45;;;;;;;8.66;100.00;101628.28;4857844;29;20045;-95
2023/11/24 10:10:34;;;;;;;28.92;4.82;;;;;;;8.76;100.00;101634.63;4838911;29;20049;-95
2023/11/24 10:13:05;;;;;;;26.40;4.18;;;;;;;8.77;100.00;101624.94;4829659;29;20048;-96
2023/11/24 10:15:34;;;;;;;20.85;4.88;;;;;;;8.78;100.00;101622.19;4842518;29;20059;-96
2023/11/24 10:18:02;;;;;;;34.60;4.78;;;;;;;8.71;100.00;101615.66;4845416;29;20034;-96
2023/11/24 10:20:49;;;;;;;30.05;6.95;;;;;;;8.68;100.00;101616.69;4843940;29;20038;-94
2023/11/24 10:23:20;;;;;;;22.40;4.57;;;;;;;8.77;100.00;101617.03;4827977;29;20061;-96
2023/11/24 10:26:32;;;;;;;34.25;4.57;;;;;;;8.87;100.00;101619.91;4860226;29;20061;-96
2023/11/24 10:29:24;;;;;;;23.23;4.43;;;;;;;8.78;100.00;101606.38;4869166;29;20478;-96
2023/11/24 10:32:00;;;;;;;31.52;4.55;;;;;;;8.86;100.00;101608.50;4840740;29;20073;-95
2023/11/24 10:34:41;;;;;;;26.02;4.85;;;;;;;8.91;100.00;101603.75;4860385;29;20577;-96
2023/11/24 10:37:42;;;;;;;33.67;4.22;;;;;;;8.95;100.00;101606.19;4851995;29;20041;-96
2023/11/24 10:40:21;;;;;;;30.05;4.47;;;;;;;8.90;100.00;101607.31;4839293;29;20049;-96
2023/11/24 10:43:22;;;;;;;24.98;4.00;;;;;;;8.96;100.00;101614.00;4860260;29;20160;-95
2023/11/24 10:45:57;;;;;;;33.80;5.25;;;;;;;8.95;100.00;101612.28;4862159;29;20043;-96
2023/11/24 10:48:46;;;;;;;29.60;4.90;;;;;;;9.02;100.00;101610.94;4844335;29;20109;-94
2023/11/24 10:51:36;;;;;;;25.67;4.85;;;;;;;9.12;100.00;101618.22;4846808;29;20053;-96
2023/11/24 10:54:24;;;;;;;31.27;3.80;;;;;;;9.15;100.00;101616.22;4849105;29;20041;-96
2023/11/24 10:57:05;;;;;;;22.95;3.75;;;;;;;9.16;100.00;101623.16;4876458;29;20497;-96
2023/11/24 10:59:45;;;;;;;34.35;4.65;;;;;;;9.22;100.00;101621.88;4832715;29;20049;-95
2023/11/24 11:02:32;;;;;;;29.45;5.55;;;;;;;9.22;100.00;101608.69;4847925;29;20062;-96
2023/11/24 11:05:27;;;;;;;22.23;6.40;;;;;;;9.30;100.00;101616.94;4843186;29;20063;-95
2023/11/24 11:08:27;;;;;;;23.35;4.63;;;;;;;9.28;100.00;101613.56;4838281;29;20040;-96
2023/11/24 11:11:21;;;;;;;21.77;4.10;;;;;;;9.25;100.00;101607.66;4822128;29;20072;-95
2023/11/24 11:13:57;;;;;;;28.60;4.15;;;;;;;9.26;100.00;101601.41;4842666;29;20053;-96
2023/11/24 11:16:38;;;;;;;24.08;4.25;;;;;;;9.28;100.00;101595.09;4842470;29;20045;-96
2023/11/24 11:19:35;;;;;;;21.30;3.97;;;;;;;9.39;100.00;101588.22;4833008;29;20037;-96
2023/11/24 11:22:21;;;;;;;22.15;4.93;;;;;;;9.37;100.00;101588.31;4837320;29;20442;-96
2023/11/24 11:25:06;;;;;;;25.50;5.25;;;;;;;9.44;100.00;101575.56;4841107;29;20493;-96
2023/11/24 11:27:48;;;;;;;23.65;4.43;;;;;;;9.43;100.00;101587.91;4834638;29;20049;-96
2023/11/24 11:33:26;;;;;;;35.35;5.25;;;;;;;9.61;100.00;101576.13;4843124;29;20097;-96
2023/11/24 11:36:06;;;;;;;23.40;4.70;;;;;;;9.75;100.00;101572.50;4827009;29;20067;-96
2023/11/24 11:39:03;;;;;;;22.88;6.25;;;;;;;9.92;100.00;101571.28;4832211;29;20037;-96
2023/11/24 11:42:02;;;;;;;27.75;3.47;;;;;;;10.06;100.00;101570.28;4849234;29;20096;-96
2023/11/24 11:44:36;;;;;;;19.63;2.75;;;;;;;9.87;100.00;101562.84;4824902;29;20052;-96
2023/11/24 11:47:15;;;;;;;23.95;3.25;;;;;;;9.85;100.00;101570.03;4856681;29;20060;-96
2023/11/24 11:49:42;;;;;;;22.48;3.47;;;;;;;9.74;100.00;101576.94;4830884;29;20123;-95
2023/11/24 11:52:16;;;;;;;17.52;2.72;;;;;;;9.71;100.00;101576.31;4831954;29;20048;-95
2023/11/24 11:54:51;;;;;;;18.58;3.70;;;;;;;9.68;100.00;101577.41;4874143;29;20492;-95
2023/11/24 11:57:24;;;;;;;32.70;3.70;;;;;;;9.60;100.00;101571.81;4843705;29;20074;-96
2023/11/24 12:00:11;;;;;;;;;;;;;;;;;;;;;
2023/11/24 12:02:53;;;;;;;25.98;3.20;;;;;;;9.54;100.00;101567.78;4861947;29;20489;-96
2023/11/24 12:06:19;;;;;;;19.05;2.35;;;;;;;9.53;100.00;101566.97;4857890;29;20041;-96
2023/11/24 12:09:47;;;;;;;18.40;2.80;;;;;;;9.46;100.00;101557.78;4848652;29;20037;-96
2023/11/24 12:12:58;;;;;;;15.88;2.70;;;;;;;9.43;100.00;101564.13;4880979;29;20678;-96
2023/11/24 12:15:34;;;;;;;15.68;3.33;;;;;;;9.34;100.00;101561.31;4830833;29;20048;-95
2023/11/24 12:18:00;;;;;;;14.82;2.05;;;;;;;9.34;100.00;101556.03;4849288;29;20128;-96
2023/11/24 12:20:31;;;;;;;15.10;2.20;;;;;;;9.33;100.00;101557.00;4835000;29;20048;-96
2023/11/24 12:23:06;;;;;;;15.88;2.13;;;;;;;9.37;100.00;101559.31;4831814;29;20410;-96
2023/11/24 12:25:55;;;;;;;14.52;2.67;;;;;;;9.45;100.00;101564.03;4828334;29;20444;-96
2023/11/24 12:28:46;;;;;;;17.88;3.03;;;;;;;9.35;100.00;101549.81;4858162;29;20089;-96
2023/11/24 12:31:19;;;;;;;16.58;3.45;;;;;;;9.41;100.00;101555.47;4864064;29;20041;-96
2023/11/24 12:33:51;;;;;;;20.58;3.42;;;;;;;9.30;100.00;101543.06;4832136;29;20049;-95
2023/11/24 12:36:26;;;;;;;25.33;4.38;;;;;;;9.31;100.00;101549.19;4862453;29;20096;-96
2023/11/24 12:38:53;;;;;;;20.08;5.28;;;;;;;9.27;100.00;101535.34;4829490;29;20037;-95
2023/11/24 12:41:31;;;;;;;18.92;4.60;;;;;;;9.40;100.00;101547.69;4841046;29;20033;-95
2023/11/24 12:44:05;;;;;;;19.83;6.28;;;;;;;9.33;100.00;101541.16;4865611;29;20041;-96
2023/11/24 12:46:39;;;;;;;22.38;3.88;;;;;;;9.36;100.00;101547.06;4846955;29;20061;-96
2023/11/24 12:49:09;;;;;;;17.05;2.60;;;;;;;9.21;100.00;101542.84;4832572;29;20119;-94
2023/11/24 12:51:47;;;;;;;16.92;3.70;;;;;;;9.23;100.00;101551.50;4838356;29;20484;-95
2023/11/24 12:54:21;;;;;;;14.85;3.40;;;;;;;9.15;100.00;101533.59;4848180;29;20132;-95
2023/11/24 12:56:53;;;;;;;16.88;2.78;;;;;;;9.12;100.00;101545.22;4827309;29;20823;-95
2023/11/24 12:59:22;;;;;;;16.85;2.53;;;;;;;9.09;100.00;101532.25;4848862;29;20044;-96
2023/11/24 13:01:54;;;;;;;18.27;2.53;;;;;;;9.04;100.00;101529.94;4833676;29;20045;-96
2023/11/24 13:04:20;;;;;;;12.20;2.40;;;;;;;9.09;100.00;101528.75;4880557;29;20489;-94
2023/11/24 13:06:49;;;;;;;17.52;2.90;;;;;;;9.12;100.00;101531.16;4833498;29;20125;-96
2023/11/24 13:09:23;;;;;;;11.80;3.17;;;;;;;9.23;100.00;101538.31;4850239;29;20033;-95